Time;durP1;ratioP1;P1;durP2;ratioP2;P2;SDS_P1;SDS_P2;PMS_P1;PMS_P2;Temp;Humidity;BMP_temperature;BMP_pressure;BME280_temperature;BME280_humidity;BME280_pressure;Samples;Min_cycle;Max_cycle;Signal;HPM_P1;HPM_P2
2021/11/10 00:00:18;;;;;;;13.07;9.90;;;6.50;76.10;;;;;;5109634;28;20445;-46
2021/11/10 00:02:43;;;;;;;13.37;9.80;;;6.50;76.20;;;;;;5098262;28;20580;-46
2021/11/10 00:05:10;;;;;;;11.83;9.20;;;6.40;76.10;;;;;;5098705;28;20490;-46
2021/11/10 00:07:36;;;;;;;12.90;10.00;;;6.40;76.20;;;;;;5097827;28;20484;-46
2021/11/10 00:10:03;;;;;;;13.83;10.37;;;6.40;76.10;;;;;;5105445;28;20757;-46
2021/11/10 00:12:28;;;;;;;15.83;10.57;;;6.30;76.00;;;;;;5102138;28;20918;-46
2021/11/10 00:14:54;;;;;;;12.00;9.00;;;6.30;76.00;;;;;;5097520;28;20455;-46
2021/11/10 00:17:20;;;;;;;10.00;8.40;;;6.30;76.10;;;;;;5097771;28;20209;-46
2021/11/10 00:19:46;;;;;;;13.80;10.40;;;6.30;76.20;;;;;;5097953;28;20188;-46
2021/11/10 00:22:11;;;;;;;13.37;10.10;;;6.20;76.20;;;;;;5098179;28;20264;-46
2021/11/10 00:24:37;;;;;;;12.57;9.20;;;6.20;76.30;;;;;;5098003;28;20441;-46
2021/11/10 00:27:03;;;;;;;13.00;9.30;;;6.20;76.40;;;;;;5100851;28;20180;-46
2021/11/10 00:29:29;;;;;;;12.17;9.17;;;6.20;76.40;;;;;;5104604;28;20724;-46
2021/11/10 00:31:55;;;;;;;11.90;9.53;;;6.10;76.30;;;;;;5105655;28;20779;-47
2021/11/10 00:34:20;;;;;;;16.83;11.40;;;6.10;76.30;;;;;;5102885;28;20579;-45
2021/11/10 00:36:47;;;;;;;13.07;10.63;;;6.10;76.50;;;;;;5104941;28;20184;-45
2021/11/10 00:39:13;;;;;;;16.70;10.50;;;6.10;76.60;;;;;;5104855;28;20459;-46
2021/11/10 00:41:38;;;;;;;12.40;9.93;;;6.00;76.60;;;;;;5087927;28;20427;-46
2021/11/10 00:44:04;;;;;;;13.30;10.23;;;6.00;76.80;;;;;;5097571;28;20498;-46
2021/11/10 00:46:31;;;;;;;14.40;11.10;;;6.00;77.10;;;;;;5090738;28;20233;-47
2021/11/10 00:48:57;;;;;;;14.20;10.00;;;6.00;77.20;;;;;;5105105;28;20196;-46
2021/11/10 00:51:23;;;;;;;12.30;10.10;;;5.90;77.30;;;;;;5108227;28;20477;-46
2021/11/10 00:53:49;;;;;;;11.80;9.47;;;5.90;77.50;;;;;;5109574;28;20425;-46
2021/11/10 00:56:15;;;;;;;10.70;9.33;;;5.90;77.70;;;;;;5107056;28;20184;-46
2021/11/10 00:58:41;;;;;;;11.27;9.47;;;5.90;77.90;;;;;;5111543;28;20434;-47
2021/11/10 01:01:08;;;;;;;12.40;10.93;;;5.90;78.20;;;;;;5106684;28;20495;-46
2021/11/10 01:03:34;;;;;;;12.23;9.43;;;5.90;78.30;;;;;;5109321;28;20208;-46
2021/11/10 01:05:59;;;;;;;12.80;10.20;;;5.90;78.50;;;;;;5093182;28;20494;-46
2021/11/10 01:08:26;;;;;;;12.30;10.30;;;5.80;78.60;;;;;;5094593;28;20825;-46
2021/11/10 01:10:53;;;;;;;14.23;9.27;;;5.80;78.70;;;;;;5112090;28;20601;-46
2021/11/10 01:13:20;;;;;;;12.50;9.70;;;5.80;78.80;;;;;;5106849;28;20437;-46
2021/11/10 01:15:46;;;;;;;13.10;10.40;;;5.80;78.90;;;;;;5106155;28;20431;-46
2021/11/10 01:18:11;;;;;;;12.27;10.10;;;5.80;78.90;;;;;;5109083;28;20423;-46
2021/11/10 01:20:38;;;;;;;12.60;10.57;;;5.70;78.90;;;;;;5106832;28;20529;-46
2021/11/10 01:23:04;;;;;;;9.73;8.73;;;5.70;78.90;;;;;;5090679;28;20189;-46
2021/11/10 01:25:30;;;;;;;10.97;9.27;;;5.70;79.00;;;;;;5105587;28;20453;-46
2021/11/10 01:27:56;;;;;;;10.80;9.70;;;5.70;79.00;;;;;;5105411;28;20446;-45
2021/11/10 01:30:22;;;;;;;10.60;9.50;;;5.70;79.10;;;;;;5105495;28;20547;-45
2021/11/10 01:32:48;;;;;;;15.17;10.30;;;5.70;79.20;;;;;;5106413;28;20801;-45
2021/11/10 01:35:14;;;;;;;11.70;9.77;;;5.60;79.20;;;;;;5108019;28;20485;-45
2021/11/10 01:37:40;;;;;;;11.63;10.17;;;5.70;79.60;;;;;;5106113;28;20493;-45
2021/11/10 01:40:08;;;;;;;13.53;11.97;;;5.70;79.80;;;;;;5106104;28;20417;-44
2021/11/10 01:42:40;;;;;;;12.73;10.87;;;5.70;80.00;;;;;;5103998;28;20567;-45
2021/11/10 01:45:07;;;;;;;12.00;10.00;;;5.60;80.00;;;;;;5109548;28;20708;-44
2021/11/10 01:47:33;;;;;;;13.97;12.10;;;5.60;80.10;;;;;;5110354;28;21067;-46
2021/11/10 01:49:58;;;;;;;13.03;10.80;;;5.60;80.40;;;;;;5111163;28;20603;-45
2021/11/10 01:52:24;;;;;;;14.47;12.03;;;5.60;80.50;;;;;;5109797;28;20249;-46
2021/11/10 01:54:50;;;;;;;13.63;11.67;;;5.60;80.70;;;;;;5110628;28;20188;-46
2021/11/10 01:57:16;;;;;;;14.27;10.60;;;5.60;80.80;;;;;;5111851;28;20631;-46
2021/11/10 01:59:44;;;;;;;14.30;12.80;;;5.60;80.90;;;;;;5110295;28;20508;-46
2021/11/10 02:02:19;;;;;;;15.37;12.10;;;5.60;81.10;;;;;;5091740;28;20433;-46
2021/11/10 02:04:47;;;;;;;14.10;11.30;;;5.60;81.20;;;;;;5109401;28;20418;-45
2021/11/10 02:07:13;;;;;;;11.93;10.60;;;5.60;81.40;;;;;;5108516;28;20833;-45
2021/11/10 02:09:39;;;;;;;13.80;11.80;;;5.60;81.60;;;;;;5113911;28;20574;-45
2021/11/10 02:12:05;;;;;;;13.80;11.97;;;5.50;81.60;;;;;;5109514;28;20436;-46
2021/11/10 02:14:31;;;;;;;14.10;11.33;;;5.50;81.80;;;;;;5109943;28;20176;-46
2021/11/10 02:16:57;;;;;;;12.70;10.97;;;5.50;81.80;;;;;;5111092;28;20858;-46
2021/11/10 02:19:23;;;;;;;14.57;10.70;;;5.50;81.80;;;;;;5118291;28;20414;-46
2021/11/10 02:21:53;;;;;;;15.33;12.27;;;5.50;81.80;;;;;;5120602;28;20422;-45
2021/11/10 02:24:20;;;;;;;13.27;11.10;;;5.40;81.70;;;;;;5120847;28;20398;-46
2021/11/10 02:26:47;;;;;;;13.27;11.87;;;5.40;81.80;;;;;;5120592;28;20422;-46
2021/11/10 02:29:14;;;;;;;13.73;11.30;;;5.40;81.80;;;;;;5120295;28;20406;-45
2021/11/10 02:31:40;;;;;;;15.30;11.80;;;5.40;81.80;;;;;;5102685;28;20433;-46
2021/11/10 02:34:06;;;;;;;15.80;12.57;;;5.40;81.80;;;;;;5120480;28;20413;-45
2021/11/10 02:36:33;;;;;;;13.27;11.80;;;5.40;81.70;;;;;;5120238;28;20847;-46
2021/11/10 02:39:01;;;;;;;17.73;11.97;;;5.30;81.50;;;;;;5120447;28;20262;-46
2021/11/10 02:41:29;;;;;;;14.23;11.43;;;5.30;81.40;;;;;;5102460;28;20441;-46
2021/11/10 02:43:55;;;;;;;13.90;11.90;;;5.30;81.40;;;;;;5119454;28;20478;-46
2021/11/10 02:46:21;;;;;;;12.93;11.13;;;5.30;81.50;;;;;;5119881;28;20429;-54
2021/11/10 02:48:47;;;;;;;12.77;11.20;;;5.20;81.50;;;;;;5120389;28;20420;-46
2021/11/10 02:51:13;;;;;;;14.47;10.87;;;5.20;81.60;;;;;;5119372;28;20470;-46
2021/11/10 02:53:39;;;;;;;11.37;10.23;;;5.20;81.60;;;;;;5119952;28;20172;-45
2021/11/10 02:56:05;;;;;;;14.30;11.87;;;5.20;82.30;;;;;;5118642;28;20466;-45
2021/11/10 02:58:34;;;;;;;12.60;10.67;;;5.20;81.70;;;;;;5119332;28;20867;-46
2021/11/10 03:01:02;;;;;;;13.53;11.07;;;5.20;81.80;;;;;;5119793;28;20517;-46
2021/11/10 03:03:27;;;;;;;14.00;11.70;;;5.10;81.80;;;;;;5119316;28;20441;-46
2021/11/10 03:05:53;;;;;;;12.30;10.80;;;5.10;81.80;;;;;;5119896;28;20417;-46
2021/11/10 03:08:19;;;;;;;10.90;9.70;;;5.10;81.80;;;;;;5119333;28;20180;-45
2021/11/10 03:10:46;;;;;;;15.10;12.10;;;5.10;81.90;;;;;;5119516;28;20465;-46
2021/11/10 03:13:12;;;;;;;12.50;10.97;;;5.10;81.90;;;;;;5119868;28;20460;-46
2021/11/10 03:15:39;;;;;;;12.80;10.50;;;5.10;81.90;;;;;;5119676;28;20434;-46
2021/11/10 03:18:05;;;;;;;12.20;10.53;;;5.10;82.00;;;;;;5119406;28;20460;-46
2021/11/10 03:20:31;;;;;;;12.93;11.60;;;5.10;82.10;;;;;;5119753;28;20442;-46
2021/11/10 03:22:56;;;;;;;12.10;10.80;;;5.10;82.20;;;;;;5119296;28;20191;-46
2021/11/10 03:25:22;;;;;;;14.20;11.40;;;5.00;82.20;;;;;;5119525;28;20215;-46
2021/11/10 03:27:48;;;;;;;13.53;11.20;;;5.00;82.30;;;;;;5119363;28;20270;-46
2021/11/10 03:30:13;;;;;;;14.47;11.60;;;5.00;82.30;;;;;;5118837;28;20204;-46
2021/11/10 03:32:41;;;;;;;12.33;11.03;;;5.00;82.30;;;;;;5118837;28;20176;-46
2021/11/10 03:35:08;;;;;;;12.37;10.40;;;5.00;82.40;;;;;;5118795;28;20425;-46
2021/11/10 03:37:35;;;;;;;13.80;10.77;;;5.00;82.50;;;;;;5119579;28;20430;-46
2021/11/10 03:40:02;;;;;;;12.67;10.70;;;5.00;82.50;;;;;;5119349;28;20445;-46
2021/11/10 03:42:28;;;;;;;12.30;11.00;;;5.00;82.50;;;;;;5118623;28;20425;-46
2021/11/10 03:44:54;;;;;;;12.77;11.40;;;5.00;82.60;;;;;;5119110;28;20697;-46
2021/11/10 03:47:19;;;;;;;14.27;11.47;;;4.90;83.20;;;;;;5118677;28;20429;-46
2021/11/10 03:49:45;;;;;;;12.40;10.67;;;4.90;82.70;;;;;;5118874;28;20913;-46
2021/11/10 03:52:14;;;;;;;14.20;11.80;;;4.90;82.80;;;;;;5117836;28;20184;-46
2021/11/10 03:54:40;;;;;;;13.30;10.97;;;4.90;82.90;;;;;;5117467;28;20169;-46
2021/11/10 03:57:06;;;;;;;14.33;11.00;;;4.90;83.10;;;;;;5117087;28;20415;-46
2021/11/10 03:59:32;;;;;;;16.63;11.83;;;4.90;83.20;;;;;;5116548;28;20418;-46
2021/11/10 04:01:57;;;;;;;12.83;11.00;;;4.90;83.60;;;;;;5116583;28;20854;-46
2021/11/10 04:04:23;;;;;;;15.20;10.50;;;4.90;83.80;;;;;;5117730;28;20535;-46
2021/11/10 04:06:49;;;;;;;12.80;11.40;;;4.90;84.00;;;;;;5117163;28;20191;-46
2021/11/10 04:09:15;;;;;;;15.13;11.47;;;4.90;84.20;;;;;;5117380;28;20244;-46
2021/11/10 04:11:40;;;;;;;13.63;11.40;;;4.90;84.30;;;;;;5118037;28;20508;-46
2021/11/10 04:14:06;;;;;;;14.60;12.00;;;4.90;84.30;;;;;;5099543;28;20206;-46
2021/11/10 04:16:32;;;;;;;15.17;12.47;;;4.90;84.40;;;;;;5118521;28;20587;-46
2021/11/10 04:18:57;;;;;;;15.57;12.00;;;4.90;84.60;;;;;;5117661;28;20213;-46
2021/11/10 04:21:24;;;;;;;15.60;13.57;;;4.90;84.70;;;;;;5099631;28;20429;-46
2021/11/10 04:23:53;;;;;;;14.30;12.57;;;4.90;84.90;;;;;;5117120;28;20194;-46
2021/11/10 04:26:20;;;;;;;12.93;11.50;;;4.90;85.80;;;;;;5116711;28;20835;-46
2021/11/10 04:28:45;;;;;;;16.30;12.70;;;4.90;85.10;;;;;;5116955;28;20453;-46
2021/11/10 04:31:11;;;;;;;13.80;11.93;;;4.90;85.10;;;;;;5117007;28;20730;-46
2021/11/10 04:33:37;;;;;;;14.57;12.20;;;4.90;85.20;;;;;;5099043;28;20180;-46
2021/11/10 04:36:03;;;;;;;12.27;10.97;;;4.80;85.20;;;;;;5118216;28;20410;-46
2021/11/10 04:38:28;;;;;;;14.40;11.70;;;4.90;85.40;;;;;;5118068;28;20180;-46
2021/11/10 04:40:54;;;;;;;12.87;11.30;;;4.80;85.30;;;;;;5118318;28;20270;-46
2021/11/10 04:43:20;;;;;;;13.13;11.53;;;4.80;85.40;;;;;;5117611;28;20499;-46
2021/11/10 04:45:48;;;;;;;12.40;11.10;;;4.80;85.40;;;;;;5117591;28;20490;-46
2021/11/10 04:48:14;;;;;;;13.37;11.23;;;4.80;85.50;;;;;;5117243;28;20188;-46
2021/11/10 04:50:43;;;;;;;13.53;11.67;;;4.80;85.40;;;;;;5117235;28;20461;-46
2021/11/10 04:53:09;;;;;;;12.57;11.10;;;4.80;85.40;;;;;;5099034;28;20207;-46
2021/11/10 04:55:35;;;;;;;13.63;12.10;;;4.80;85.40;;;;;;5115838;28;20414;-46
2021/11/10 04:58:00;;;;;;;16.27;12.83;;;4.80;85.50;;;;;;5115367;28;20505;-46
2021/11/10 05:00:27;;;;;;;14.63;11.53;;;4.80;85.60;;;;;;5115180;28;20212;-46
2021/11/10 05:02:54;;;;;;;13.83;12.40;;;4.80;85.60;;;;;;5115739;28;20493;-43
2021/11/10 05:05:21;;;;;;;14.07;12.50;;;4.80;86.30;;;;;;5096685;28;20559;-45
2021/11/10 05:07:50;;;;;;;13.27;11.40;;;4.80;85.70;;;;;;5097715;28;20508;-43
2021/11/10 05:10:17;;;;;;;13.17;11.63;;;4.80;85.70;;;;;;5117022;28;20568;-44
2021/11/10 05:12:50;;;;;;;12.73;11.40;;;4.80;85.60;;;;;;5117198;28;20420;-43
2021/11/10 05:15:16;;;;;;;12.60;11.40;;;4.80;85.30;;;;;;5116898;28;20430;-44
2021/11/10 05:17:41;;;;;;;14.30;12.10;;;4.80;85.30;;;;;;5117153;28;20176;-44
2021/11/10 05:20:08;;;;;;;14.40;12.40;;;4.80;85.20;;;;;;5117465;28;20507;-43
2021/11/10 05:22:34;;;;;;;15.50;13.17;;;4.80;85.00;;;;;;5117107;28;20191;-44
2021/11/10 05:24:59;;;;;;;17.83;12.13;;;4.80;84.90;;;;;;5116635;28;20422;-44
2021/11/10 05:27:25;;;;;;;12.63;11.33;;;4.80;84.70;;;;;;5098086;28;20253;-44
2021/11/10 05:29:51;;;;;;;14.10;12.53;;;4.70;84.50;;;;;;5117186;28;20212;-45
2021/11/10 05:32:16;;;;;;;12.23;10.90;;;4.70;84.50;;;;;;5117280;28;20219;-45
2021/11/10 05:34:42;;;;;;;14.30;12.20;;;4.70;84.40;;;;;;5116527;28;20292;-45
2021/11/10 05:37:08;;;;;;;16.60;11.50;;;4.70;84.40;;;;;;5118506;28;20172;-44
2021/11/10 05:39:34;;;;;;;13.43;11.80;;;4.60;84.20;;;;;;5103404;28;20417;-44
2021/11/10 05:41:59;;;;;;;14.70;11.70;;;4.60;84.00;;;;;;5086619;28;20259;-44
2021/11/10 05:44:25;;;;;;;14.23;12.13;;;4.60;84.00;;;;;;5121050;28;20356;-42
2021/11/10 05:46:51;;;;;;;13.20;11.37;;;4.60;83.90;;;;;;5120865;28;20180;-43
2021/11/10 05:49:17;;;;;;;15.93;12.57;;;4.60;83.90;;;;;;5119963;28;20180;-43
2021/11/10 05:51:43;;;;;;;16.33;12.33;;;4.60;83.80;;;;;;5120451;28;20188;-42
2021/11/10 05:54:08;;;;;;;13.90;12.27;;;4.60;83.80;;;;;;5120019;28;20412;-43
2021/11/10 05:56:36;;;;;;;11.80;10.53;;;4.50;83.60;;;;;;5118936;28;20446;-43
2021/11/10 05:59:02;;;;;;;14.87;12.60;;;4.50;83.70;;;;;;5119500;28;20202;-43
2021/11/10 06:01:28;;;;;;;12.43;11.13;;;4.50;83.60;;;;;;5118561;28;20440;-44
2021/11/10 06:03:55;;;;;;;14.97;11.90;;;4.50;83.60;;;;;;5099861;28;20422;-45
2021/11/10 06:06:22;;;;;;;13.00;11.50;;;4.50;83.50;;;;;;5099358;28;20184;-44
2021/11/10 06:08:47;;;;;;;14.50;12.00;;;4.40;83.50;;;;;;5118189;28;21000;-44
2021/11/10 06:11:13;;;;;;;13.87;12.13;;;4.50;83.50;;;;;;5101711;28;20614;-43
2021/11/10 06:13:40;;;;;;;12.73;11.40;;;4.40;83.40;;;;;;5098760;28;20211;-42
2021/11/10 06:16:06;;;;;;;18.47;12.00;;;4.40;83.30;;;;;;5098997;28;20267;-42
2021/11/10 06:18:33;;;;;;;14.23;11.73;;;4.40;83.40;;;;;;5098920;28;20817;-42
2021/11/10 06:21:00;;;;;;;15.60;12.30;;;4.40;83.50;;;;;;5097357;28;20802;-42
2021/11/10 06:23:26;;;;;;;13.50;12.10;;;4.40;83.70;;;;;;5080069;28;20427;-43
2021/11/10 06:25:52;;;;;;;14.37;11.83;;;4.40;83.70;;;;;;5077409;28;21037;-44
2021/11/10 06:28:18;;;;;;;13.20;11.70;;;4.30;83.60;;;;;;5118749;28;20422;-43
2021/11/10 06:30:44;;;;;;;13.90;12.30;;;4.30;83.60;;;;;;5105647;28;20980;-44
2021/11/10 06:33:10;;;;;;;13.60;10.80;;;4.40;83.80;;;;;;5096247;28;20180;-44
2021/11/10 06:35:36;;;;;;;14.93;12.40;;;4.40;83.70;;;;;;5107264;28;21131;-43
2021/11/10 06:38:02;;;;;;;12.93;11.63;;;4.40;84.50;;;;;;5099083;28;20238;-43
2021/11/10 06:40:28;;;;;;;12.60;11.27;;;4.40;83.80;;;;;;5089499;28;20210;-43
2021/11/10 06:42:53;;;;;;;13.77;12.10;;;4.30;83.70;;;;;;5096584;28;20573;-43
2021/11/10 06:45:19;;;;;;;15.00;12.30;;;4.40;83.90;;;;;;5074672;28;20232;-43
2021/11/10 06:47:45;;;;;;;16.00;11.53;;;4.40;83.80;;;;;;5074923;28;20217;-44
2021/11/10 06:50:12;;;;;;;14.43;11.60;;;4.40;83.80;;;;;;5079945;28;20215;-44
2021/11/10 06:52:38;;;;;;;13.80;12.17;;;4.50;83.90;;;;;;5077834;28;20201;-44
2021/11/10 06:55:06;;;;;;;16.70;12.50;;;4.50;83.80;;;;;;5078400;28;20454;-45
2021/11/10 06:57:32;;;;;;;12.73;10.87;;;4.50;83.70;;;;;;5095795;28;20422;-42
2021/11/10 06:59:58;;;;;;;14.83;12.10;;;4.60;83.80;;;;;;5077557;28;20416;-44
2021/11/10 07:02:24;;;;;;;15.97;12.87;;;4.70;83.90;;;;;;5093876;28;20246;-43
2021/11/10 07:04:49;;;;;;;12.30;11.00;;;4.70;83.80;;;;;;5076892;28;20425;-43
2021/11/10 07:07:15;;;;;;;12.50;11.20;;;4.80;83.90;;;;;;5095064;28;20465;-45
2021/11/10 07:09:41;;;;;;;16.43;13.13;;;4.90;83.80;;;;;;5088466;28;20598;-43
2021/11/10 07:12:07;;;;;;;17.37;12.17;;;5.00;83.90;;;;;;5080737;28;20469;-45
2021/11/10 07:14:34;;;;;;;12.90;11.60;;;5.10;83.90;;;;;;5098777;28;20233;-42
2021/11/10 07:17:00;;;;;;;14.37;12.50;;;5.20;83.70;;;;;;5079548;28;20438;-41
2021/11/10 07:19:25;;;;;;;13.97;11.63;;;5.30;83.60;;;;;;5098344;28;20434;-45
2021/11/10 07:21:51;;;;;;;12.90;11.60;;;5.40;83.50;;;;;;5082731;28;20857;-42
2021/11/10 07:24:18;;;;;;;14.33;12.93;;;5.50;83.40;;;;;;5076300;28;20259;-43
2021/11/10 07:26:44;;;;;;;15.43;13.63;;;5.70;83.40;;;;;;5075559;28;20428;-42
2021/11/10 07:29:09;;;;;;;14.83;12.50;;;5.80;83.30;;;;;;5075242;28;20188;-43
2021/11/10 07:31:35;;;;;;;14.93;11.40;;;6.00;83.20;;;;;;5085988;28;20471;-43
2021/11/10 07:34:02;;;;;;;13.57;12.03;;;6.20;83.10;;;;;;5077970;28;20181;-44
2021/11/10 07:36:29;;;;;;;15.43;13.10;;;6.40;82.90;;;;;;5074159;28;20459;-45
2021/11/10 07:38:56;;;;;;;15.13;13.10;;;6.60;82.60;;;;;;5073572;28;20420;-44
2021/11/10 07:41:23;;;;;;;17.17;13.27;;;6.80;82.30;;;;;;5076676;28;20430;-45
2021/11/10 07:43:52;;;;;;;14.70;13.23;;;7.00;81.90;;;;;;5110154;28;20954;-43
2021/11/10 07:46:19;;;;;;;14.47;12.93;;;7.20;81.70;;;;;;5097216;28;20445;-44
2021/11/10 07:48:47;;;;;;;15.63;14.13;;;7.30;81.20;;;;;;5098948;28;20430;-44
2021/11/10 07:51:13;;;;;;;16.47;13.00;;;7.50;81.00;;;;;;5095321;28;20912;-44
2021/11/10 07:53:39;;;;;;;14.40;12.90;;;7.60;80.60;;;;;;5113647;28;20518;-44
2021/11/10 07:56:05;;;;;;;17.63;14.43;;;7.70;80.40;;;;;;5078987;28;20486;-44
2021/11/10 07:58:31;;;;;;;16.60;14.90;;;7.70;80.10;;;;;;5097314;28;20422;-44
2021/11/10 08:00:56;;;;;;;14.13;12.73;;;7.80;80.00;;;;;;5096282;28;20429;-44
2021/11/10 08:03:22;;;;;;;15.53;13.93;;;7.90;79.70;;;;;;5098263;28;20252;-44
2021/11/10 08:05:56;;;;;;;16.23;14.00;;;8.00;79.60;;;;;;5099794;28;20235;-43
2021/11/10 08:08:22;;;;;;;14.43;12.90;;;8.00;79.20;;;;;;5095242;28;20431;-43
2021/11/10 08:10:48;;;;;;;15.30;12.77;;;8.10;79.00;;;;;;5077967;28;20527;-44
2021/11/10 08:13:14;;;;;;;16.77;13.27;;;8.20;78.80;;;;;;5095086;28;20181;-43
2021/11/10 08:15:40;;;;;;;14.40;12.37;;;8.20;78.60;;;;;;5095050;28;20418;-44
2021/11/10 08:18:06;;;;;;;16.00;14.43;;;8.30;78.40;;;;;;5095801;28;20188;-45
2021/11/10 08:20:32;;;;;;;13.77;12.37;;;8.30;78.30;;;;;;5103457;28;20843;-43
2021/11/10 08:22:58;;;;;;;14.90;13.10;;;8.30;78.10;;;;;;5112876;28;20196;-43
2021/11/10 08:25:23;;;;;;;15.43;13.20;;;8.40;78.00;;;;;;5095801;28;20427;-44
2021/11/10 08:27:49;;;;;;;14.57;13.03;;;8.40;77.90;;;;;;5096551;28;20468;-44
2021/11/10 08:30:18;;;;;;;14.67;12.97;;;8.40;77.70;;;;;;5100212;28;20212;-44
2021/11/10 08:32:45;;;;;;;13.80;12.40;;;8.50;77.80;;;;;;5095941;28;20231;-44
2021/11/10 08:35:11;;;;;;;15.73;14.10;;;8.50;77.70;;;;;;5097619;28;20436;-43
2021/11/10 08:37:37;;;;;;;14.30;12.90;;;8.60;77.80;;;;;;5099757;28;20421;-42
2021/11/10 08:40:06;;;;;;;14.70;12.80;;;8.60;77.60;;;;;;5114743;28;20465;-44
2021/11/10 08:42:35;;;;;;;15.73;14.13;;;8.70;77.50;;;;;;5114330;28;20425;-44
2021/11/10 08:45:29;;;;;;;16.60;14.90;;;8.80;77.30;;;;;;5114632;28;20871;-44
2021/11/10 08:47:58;;;;;;;15.27;13.77;;;8.90;77.00;;;;;;5112956;28;20890;-45
2021/11/10 08:50:26;;;;;;;15.07;13.67;;;9.00;76.50;;;;;;5098515;28;20552;-43
2021/11/10 08:52:57;;;;;;;18.17;15.40;;;9.00;76.10;;;;;;5116650;28;20786;-45
2021/11/10 08:55:23;;;;;;;19.50;15.50;;;9.10;76.00;;;;;;5117210;28;20582;-44
2021/11/10 08:57:49;;;;;;;16.33;14.63;;;9.10;75.70;;;;;;5116984;28;20511;-45
2021/11/10 09:00:25;;;;;;;19.27;15.17;;;9.20;75.60;;;;;;5115575;28;20426;-43
2021/11/10 09:02:52;;;;;;;16.13;14.53;;;9.30;75.60;;;;;;5095669;28;20441;-46
2021/11/10 09:05:18;;;;;;;17.17;15.37;;;9.40;75.60;;;;;;5095727;28;20577;-43
2021/11/10 09:07:44;;;;;;;17.83;16.10;;;9.40;75.50;;;;;;5095674;28;20501;-43
2021/11/10 09:10:11;;;;;;;17.67;15.80;;;9.50;75.40;;;;;;5107231;28;20473;-42
2021/11/10 09:12:38;;;;;;;18.10;16.33;;;9.50;75.20;;;;;;5117120;28;20436;-45
2021/11/10 09:15:09;;;;;;;18.20;16.30;;;9.60;75.00;;;;;;5101148;28;20427;-44
2021/11/10 09:17:35;;;;;;;19.17;15.20;;;9.70;74.90;;;;;;5099717;28;20433;-44
2021/11/10 09:20:05;;;;;;;17.20;14.73;;;9.80;74.80;;;;;;5100339;28;20442;-43
2021/11/10 09:22:32;;;;;;;19.90;15.23;;;9.90;74.70;;;;;;5117317;28;20432;-45
2021/11/10 09:24:58;;;;;;;26.07;16.47;;;10.00;73.10;;;;;;5110873;28;20430;-43
2021/11/10 09:27:24;;;;;;;17.63;15.53;;;10.10;72.90;;;;;;5111116;28;20464;-45
2021/11/10 09:29:50;;;;;;;17.07;15.30;;;10.20;72.70;;;;;;5119038;28;20546;-43
2021/11/10 09:32:16;;;;;;;17.87;16.00;;;10.30;72.50;;;;;;5098413;28;20929;-44
2021/11/10 09:34:42;;;;;;;18.13;16.40;;;10.50;72.40;;;;;;5099487;28;20419;-43
2021/11/10 09:37:07;;;;;;;17.53;15.30;;;10.60;72.10;;;;;;5101922;28;20422;-46
2021/11/10 09:39:33;;;;;;;18.23;16.37;;;10.80;71.90;;;;;;5118465;28;20180;-44
2021/11/10 09:41:59;;;;;;;18.17;15.87;;;11.10;71.70;;;;;;5119275;28;20195;-44
2021/11/10 09:44:25;;;;;;;16.93;15.23;;;11.20;71.40;;;;;;5118575;28;20745;-44
2021/11/10 09:46:52;;;;;;;17.23;14.83;;;11.40;70.80;;;;;;5101951;28;20185;-45
2021/11/10 09:49:19;;;;;;;18.50;15.87;;;11.50;70.30;;;;;;5103795;28;20429;-42
2021/11/10 09:51:45;;;;;;;18.77;16.77;;;11.60;69.90;;;;;;5099510;28;20476;-46
2021/11/10 09:54:13;;;;;;;18.43;15.80;;;11.60;69.40;;;;;;5096223;28;20915;-43
2021/11/10 09:56:39;;;;;;;23.53;15.60;;;11.60;69.20;;;;;;5097854;28;20410;-43
2021/11/10 09:59:06;;;;;;;19.03;17.00;;;11.60;69.10;;;;;;5103539;28;20434;-43
2021/11/10 10:01:33;;;;;;;20.00;15.47;;;11.50;68.90;;;;;;5085018;28;20711;-45
2021/11/10 10:03:59;;;;;;;19.07;14.60;;;11.50;68.90;;;;;;5084000;28;20425;-43
2021/11/10 10:06:26;;;;;;;19.53;15.37;;;11.50;68.90;;;;;;5116546;28;20421;-44
2021/11/10 10:08:52;;;;;;;17.60;14.73;;;11.50;68.80;;;;;;5117286;28;20457;-44
2021/11/10 10:11:17;;;;;;;20.03;14.10;;;11.50;68.60;;;;;;5118483;28;20501;-44
2021/11/10 10:13:43;;;;;;;15.60;13.70;;;11.50;68.40;;;;;;5117998;28;20180;-44
2021/11/10 10:16:09;;;;;;;17.80;15.97;;;11.60;68.40;;;;;;5117144;28;20320;-45
2021/11/10 10:18:36;;;;;;;17.83;15.10;;;11.70;68.40;;;;;;5082282;28;20442;-44
2021/11/10 10:21:09;;;;;;;18.57;15.87;;;11.80;68.10;;;;;;5116264;28;20787;-46
2021/11/10 10:23:44;;;;;;;19.40;14.83;;;12.00;67.90;;;;;;5097499;28;20824;-45
2021/11/10 10:26:18;;;;;;;16.87;15.20;;;12.10;67.50;;;;;;5116288;28;20422;-45
2021/11/10 10:28:48;;;;;;;21.37;15.70;;;12.30;67.10;;;;;;5116091;28;20450;-45
2021/11/10 10:31:23;;;;;;;17.80;14.90;;;12.50;66.70;;;;;;5115865;28;20539;-45
2021/11/10 10:33:59;;;;;;;17.80;14.70;;;12.60;66.10;;;;;;5114933;28;20416;-45
2021/11/10 10:36:27;;;;;;;18.97;15.57;;;12.80;65.90;;;;;;5116375;28;20456;-43
2021/11/10 10:38:54;;;;;;;18.33;15.80;;;13.00;66.00;;;;;;5115222;28;20469;-43
2021/11/10 10:41:27;;;;;;;16.13;14.43;;;13.30;65.40;;;;;;5115580;28;20976;-43
2021/11/10 10:43:55;;;;;;;17.90;14.50;;;13.60;64.90;;;;;;5115731;28;20606;-44
2021/11/10 10:46:34;;;;;;;16.43;14.80;;;14.00;64.30;;;;;;5081175;28;20699;-45
2021/11/10 10:49:19;;;;;;;16.00;14.30;;;14.50;63.50;;;;;;5116145;28;20429;-46
2021/11/10 10:51:48;;;;;;;16.27;14.10;;;15.10;62.10;;;;;;5097583;28;20480;-44
2021/11/10 10:54:14;;;;;;;16.20;14.50;;;15.90;60.60;;;;;;5097746;28;20469;-45
2021/11/10 10:56:43;;;;;;;17.50;12.80;;;17.00;59.30;;;;;;5115103;28;20449;-45
2021/11/10 10:59:13;;;;;;;15.60;12.57;;;18.20;57.80;;;;;;5097373;28;20516;-45
2021/11/10 11:01:42;;;;;;;11.50;10.50;;;19.50;55.60;;;;;;5116089;28;20436;-43
2021/11/10 11:04:12;;;;;;;14.20;12.57;;;20.50;53.30;;;;;;5116492;28;21009;-45
2021/11/10 11:06:42;;;;;;;13.93;11.67;;;21.50;51.00;;;;;;5115998;28;20721;-46
2021/11/10 11:09:20;;;;;;;12.80;11.50;;;22.50;49.00;;;;;;5098108;28;20500;-44
2021/11/10 11:12:02;;;;;;;12.40;11.10;;;23.30;46.30;;;;;;5115250;28;20555;-45
2021/11/10 11:14:46;;;;;;;12.17;9.63;;;24.10;44.40;;;;;;5115119;28;20767;-44
2021/11/10 11:17:25;;;;;;;11.60;10.60;;;24.90;42.90;;;;;;5115631;28;20456;-45
2021/11/10 11:19:59;;;;;;;11.17;10.10;;;25.70;41.20;;;;;;5115541;28;20429;-47
2021/11/10 11:22:31;;;;;;;10.27;9.40;;;26.20;40.10;;;;;;5082098;28;20535;-49
2021/11/10 11:25:06;;;;;;;9.17;8.23;;;26.80;39.60;;;;;;5099123;28;20431;-43
2021/11/10 11:27:32;;;;;;;10.57;9.53;;;27.10;39.20;;;;;;5115273;28;20452;-47
2021/11/10 11:30:07;;;;;;;9.30;8.33;;;27.40;38.60;;;;;;5114289;28;20465;-46
2021/11/10 11:32:34;;;;;;;9.53;7.20;;;27.60;38.40;;;;;;5114425;28;20175;-47
2021/11/10 11:35:31;;;;;;;8.77;7.93;;;27.90;38.10;;;;;;5114576;28;20856;-47
2021/11/10 11:38:05;;;;;;;9.57;8.60;;;28.00;37.60;;;;;;5114453;28;20486;-45
2021/11/10 11:40:33;;;;;;;9.57;8.20;;;28.00;37.10;;;;;;5114304;28;20482;-46
2021/11/10 11:43:00;;;;;;;9.63;8.80;;;27.90;36.90;;;;;;5096813;28;20475;-46
2021/11/10 11:45:28;;;;;;;10.93;10.03;;;27.70;37.20;;;;;;5114940;28;20516;-45
2021/11/10 11:47:55;;;;;;;9.10;8.20;;;27.30;36.30;;;;;;5116548;28;20519;-44
2021/11/10 11:50:21;;;;;;;9.27;8.37;;;26.80;36.20;;;;;;5098404;28;21081;-45
2021/11/10 11:52:50;;;;;;;8.73;7.87;;;26.50;36.20;;;;;;5115021;28;20532;-45
2021/11/10 11:55:23;;;;;;;9.73;8.83;;;26.20;36.20;;;;;;5113631;28;20505;-45
2021/11/10 11:58:03;;;;;;;9.93;8.70;;;26.10;36.30;;;;;;5096740;28;20445;-44
2021/11/10 12:00:56;;;;;;;9.43;8.40;;;26.30;36.30;;;;;;5096579;28;20416;-47
2021/11/10 12:03:29;;;;;;;8.13;7.43;;;26.70;36.10;;;;;;5111069;28;20846;-47
2021/11/10 12:06:03;;;;;;;8.17;7.47;;;27.20;36.10;;;;;;5112100;28;20426;-45
2021/11/10 12:08:48;;;;;;;9.47;8.53;;;27.60;36.10;;;;;;5109144;28;20908;-45
2021/11/10 12:11:23;;;;;;;8.80;8.00;;;27.80;36.10;;;;;;5103406;28;20550;-44
2021/11/10 12:14:08;;;;;;;8.60;7.80;;;27.90;36.00;;;;;;5094637;28;20829;-45
2021/11/10 12:16:49;;;;;;;8.63;7.73;;;28.00;35.80;;;;;;5093707;28;20413;-46
2021/11/10 12:19:38;;;;;;;8.93;8.10;;;27.90;35.50;;;;;;5096047;28;20435;-46
2021/11/10 12:22:18;;;;;;;11.80;7.97;;;27.80;35.20;;;;;;5109107;28;20569;-47
2021/11/10 12:24:48;;;;;;;8.77;7.97;;;27.50;35.60;;;;;;5096767;28;20409;-48
2021/11/10 12:27:35;;;;;;;9.90;9.00;;;27.40;35.00;;;;;;5108789;28;20426;-46
2021/11/10 12:30:07;;;;;;;8.73;7.07;;;27.50;34.50;;;;;;5107495;28;20918;-45
2021/11/10 12:32:33;;;;;;;8.40;7.70;;;28.10;34.70;;;;;;5104143;28;20435;-46
2021/11/10 12:34:59;;;;;;;9.83;8.83;;;28.90;34.80;;;;;;5114198;28;20415;-50
2021/11/10 12:37:29;;;;;;;7.00;6.40;;;29.60;34.30;;;;;;5115238;28;20258;-47
2021/11/10 12:40:21;;;;;;;7.20;6.50;;;30.30;34.30;;;;;;5100431;28;20856;-49